sensor_id;sensor_type;location;lat;lon;timestamp;P1;durP1;ratioP1;P2;durP2;ratioP2
73675;SDS011;61975;48.660;10.164;2022-12-16T00:00:20;27.52;;;9.95;;
73675;SDS011;61975;48.660;10.164;2022-12-16T00:02:46;25.80;;;10.38;;
73675;SDS011;61975;48.660;10.164;2022-12-16T00:05:12;28.37;;;9.93;;
73675;SDS011;61975;48.660;10.164;2022-12-16T00:07:37;27.43;;;9.40;;
73675;SDS011;61975;48.660;10.164;2022-12-16T00:10:02;25.87;;;9.73;;
73675;SDS011;61975;48.660;10.164;2022-12-16T00:12:28;23.73;;;9.50;;
73675;SDS011;61975;48.660;10.164;2022-12-16T00:14:53;22.07;;;9.30;;
73675;SDS011;61975;48.660;10.164;2022-12-16T00:17:19;25.53;;;9.43;;
73675;SDS011;61975;48.660;10.164;2022-12-16T00:19:44;25.95;;;9.75;;
73675;SDS011;61975;48.660;10.164;2022-12-16T00:22:10;21.43;;;9.40;;
73675;SDS011;61975;48.660;10.164;2022-12-16T00:24:35;24.73;;;9.27;;
73675;SDS011;61975;48.660;10.164;2022-12-16T00:27:01;21.57;;;8.77;;
73675;SDS011;61975;48.660;10.164;2022-12-16T00:29:26;23.55;;;9.70;;
73675;SDS011;61975;48.660;10.164;2022-12-16T00:31:52;23.73;;;9.40;;
73675;SDS011;61975;48.660;10.164;2022-12-16T00:34:17;22.37;;;8.13;;
73675;SDS011;61975;48.660;10.164;2022-12-16T00:36:43;23.17;;;8.90;;
73675;SDS011;61975;48.660;10.164;2022-12-16T00:39:09;22.33;;;7.87;;
73675;SDS011;61975;48.660;10.164;2022-12-16T00:41:35;23.90;;;9.15;;
73675;SDS011;61975;48.660;10.164;2022-12-16T00:44:00;23.08;;;8.75;;
73675;SDS011;61975;48.660;10.164;2022-12-16T00:46:26;22.57;;;8.67;;
73675;SDS011;61975;48.660;10.164;2022-12-16T00:48:52;22.15;;;8.05;;
73675;SDS011;61975;48.660;10.164;2022-12-16T00:51:17;21.60;;;8.15;;
73675;SDS011;61975;48.660;10.164;2022-12-16T00:53:42;23.07;;;9.20;;
73675;SDS011;61975;48.660;10.164;2022-12-16T00:56:08;22.10;;;8.57;;
73675;SDS011;61975;48.660;10.164;2022-12-16T00:58:35;22.77;;;7.63;;
73675;SDS011;61975;48.660;10.164;2022-12-16T01:01:02;22.10;;;8.77;;
73675;SDS011;61975;48.660;10.164;2022-12-16T01:03:28;18.07;;;7.07;;
73675;SDS011;61975;48.660;10.164;2022-12-16T01:08:51;19.58;;;7.35;;
73675;SDS011;61975;48.660;10.164;2022-12-16T01:11:17;23.43;;;7.67;;
73675;SDS011;61975;48.660;10.164;2022-12-16T01:13:43;19.75;;;8.30;;
73675;SDS011;61975;48.660;10.164;2022-12-16T01:16:11;20.37;;;7.63;;
73675;SDS011;61975;48.660;10.164;2022-12-16T01:18:36;21.48;;;8.38;;
73675;SDS011;61975;48.660;10.164;2022-12-16T01:21:06;20.60;;;8.87;;
73675;SDS011;61975;48.660;10.164;2022-12-16T01:23:32;21.92;;;8.73;;
73675;SDS011;61975;48.660;10.164;2022-12-16T01:25:59;21.27;;;8.50;;
73675;SDS011;61975;48.660;10.164;2022-12-16T01:28:26;18.83;;;7.82;;
73675;SDS011;61975;48.660;10.164;2022-12-16T01:30:55;21.03;;;8.57;;
73675;SDS011;61975;48.660;10.164;2022-12-16T01:33:25;24.13;;;7.85;;
73675;SDS011;61975;48.660;10.164;2022-12-16T01:36:02;21.65;;;8.27;;
73675;SDS011;61975;48.660;10.164;2022-12-16T01:38:30;19.58;;;7.47;;
73675;SDS011;61975;48.660;10.164;2022-12-16T01:40:56;19.42;;;7.85;;
73675;SDS011;61975;48.660;10.164;2022-12-16T01:43:23;22.17;;;8.13;;
73675;SDS011;61975;48.660;10.164;2022-12-16T01:45:52;22.05;;;8.30;;
73675;SDS011;61975;48.660;10.164;2022-12-16T01:51:17;22.40;;;8.33;;
73675;SDS011;61975;48.660;10.164;2022-12-16T01:53:51;21.40;;;8.38;;
73675;SDS011;61975;48.660;10.164;2022-12-16T01:56:21;21.58;;;8.15;;
73675;SDS011;61975;48.660;10.164;2022-12-16T01:58:51;21.88;;;7.82;;
73675;SDS011;61975;48.660;10.164;2022-12-16T02:01:18;22.73;;;8.25;;
73675;SDS011;61975;48.660;10.164;2022-12-16T02:03:44;22.73;;;9.07;;
73675;SDS011;61975;48.660;10.164;2022-12-16T02:06:10;25.25;;;9.23;;
73675;SDS011;61975;48.660;10.164;2022-12-16T02:08:36;24.00;;;8.70;;
73675;SDS011;61975;48.660;10.164;2022-12-16T02:35:29;22.23;;;8.50;;
73675;SDS011;61975;48.660;10.164;2022-12-16T02:46:14;22.35;;;8.95;;
73675;SDS011;61975;48.660;10.164;2022-12-16T02:48:42;24.85;;;9.32;;
73675;SDS011;61975;48.660;10.164;2022-12-16T02:51:07;24.47;;;9.30;;
73675;SDS011;61975;48.660;10.164;2022-12-16T02:53:34;26.90;;;9.90;;
73675;SDS011;61975;48.660;10.164;2022-12-16T02:58:46;25.25;;;9.15;;
73675;SDS011;61975;48.660;10.164;2022-12-16T03:01:35;26.67;;;9.48;;
73675;SDS011;61975;48.660;10.164;2022-12-16T03:06:55;25.42;;;9.48;;
73675;SDS011;61975;48.660;10.164;2022-12-16T03:09:25;20.83;;;9.47;;
73675;SDS011;61975;48.660;10.164;2022-12-16T03:11:54;23.23;;;8.30;;
73675;SDS011;61975;48.660;10.164;2022-12-16T03:14:22;27.15;;;9.40;;
73675;SDS011;61975;48.660;10.164;2022-12-16T03:16:52;25.83;;;10.02;;
73675;SDS011;61975;48.660;10.164;2022-12-16T03:19:18;22.27;;;9.30;;
73675;SDS011;61975;48.660;10.164;2022-12-16T03:21:51;25.30;;;9.40;;
73675;SDS011;61975;48.660;10.164;2022-12-16T03:24:24;24.75;;;8.98;;
73675;SDS011;61975;48.660;10.164;2022-12-16T03:32:04;23.83;;;9.67;;
73675;SDS011;61975;48.660;10.164;2022-12-16T03:34:41;24.25;;;9.48;;
73675;SDS011;61975;48.660;10.164;2022-12-16T03:37:15;26.63;;;8.63;;
73675;SDS011;61975;48.660;10.164;2022-12-16T03:39:48;26.52;;;9.80;;
73675;SDS011;61975;48.660;10.164;2022-12-16T03:42:17;25.15;;;9.07;;
73675;SDS011;61975;48.660;10.164;2022-12-16T03:44:43;24.03;;;9.30;;
73675;SDS011;61975;48.660;10.164;2022-12-16T03:47:12;25.98;;;10.13;;
73675;SDS011;61975;48.660;10.164;2022-12-16T03:49:38;26.30;;;10.40;;
73675;SDS011;61975;48.660;10.164;2022-12-16T03:52:04;23.07;;;9.33;;
73675;SDS011;61975;48.660;10.164;2022-12-16T03:54:29;24.92;;;10.65;;
73675;SDS011;61975;48.660;10.164;2022-12-16T03:56:55;25.53;;;10.00;;
73675;SDS011;61975;48.660;10.164;2022-12-16T03:59:20;24.70;;;9.40;;
73675;SDS011;61975;48.660;10.164;2022-12-16T04:01:46;23.87;;;9.47;;
73675;SDS011;61975;48.660;10.164;2022-12-16T04:04:11;26.92;;;9.48;;
73675;SDS011;61975;48.660;10.164;2022-12-16T04:06:36;24.80;;;9.83;;
73675;SDS011;61975;48.660;10.164;2022-12-16T04:09:02;26.40;;;9.40;;
73675;SDS011;61975;48.660;10.164;2022-12-16T04:11:28;26.85;;;10.13;;
73675;SDS011;61975;48.660;10.164;2022-12-16T04:14:12;22.13;;;9.70;;
73675;SDS011;61975;48.660;10.164;2022-12-16T04:16:56;28.45;;;10.30;;
73675;SDS011;61975;48.660;10.164;2022-12-16T04:19:41;28.48;;;9.75;;
73675;SDS011;61975;48.660;10.164;2022-12-16T04:22:28;27.05;;;9.82;;
73675;SDS011;61975;48.660;10.164;2022-12-16T04:25:17;25.60;;;9.80;;
73675;SDS011;61975;48.660;10.164;2022-12-16T04:27:45;23.90;;;10.13;;
73675;SDS011;61975;48.660;10.164;2022-12-16T04:30:20;27.02;;;10.32;;
73675;SDS011;61975;48.660;10.164;2022-12-16T04:35:47;21.15;;;8.30;;
73675;SDS011;61975;48.660;10.164;2022-12-16T04:38:31;28.73;;;10.45;;
73675;SDS011;61975;48.660;10.164;2022-12-16T04:41:15;27.33;;;10.05;;
73675;SDS011;61975;48.660;10.164;2022-12-16T04:44:00;26.52;;;10.73;;
73675;SDS011;61975;48.660;10.164;2022-12-16T04:46:44;26.17;;;10.77;;
73675;SDS011;61975;48.660;10.164;2022-12-16T04:49:48;23.50;;;8.57;;
73675;SDS011;61975;48.660;10.164;2022-12-16T04:52:31;24.42;;;9.70;;
73675;SDS011;61975;48.660;10.164;2022-12-16T04:55:15;26.55;;;10.57;;
73675;SDS011;61975;48.660;10.164;2022-12-16T04:58:00;23.85;;;9.27;;
73675;SDS011;61975;48.660;10.164;2022-12-16T05:00:45;23.20;;;9.30;;
73675;SDS011;61975;48.660;10.164;2022-12-16T05:03:30;27.98;;;10.30;;
73675;SDS011;61975;48.660;10.164;2022-12-16T05:06:15;26.77;;;10.77;;
73675;SDS011;61975;48.660;10.164;2022-12-16T05:09:00;24.95;;;10.45;;
73675;SDS011;61975;48.660;10.164;2022-12-16T05:11:44;26.08;;;9.90;;
73675;SDS011;61975;48.660;10.164;2022-12-16T05:14:28;27.40;;;9.53;;
73675;SDS011;61975;48.660;10.164;2022-12-16T05:17:12;24.02;;;9.18;;
73675;SDS011;61975;48.660;10.164;2022-12-16T05:19:57;27.33;;;10.27;;
73675;SDS011;61975;48.660;10.164;2022-12-16T05:22:41;25.80;;;10.70;;
73675;SDS011;61975;48.660;10.164;2022-12-16T05:25:25;24.15;;;10.02;;
73675;SDS011;61975;48.660;10.164;2022-12-16T05:28:08;23.33;;;9.53;;
73675;SDS011;61975;48.660;10.164;2022-12-16T05:30:52;24.42;;;9.55;;
73675;SDS011;61975;48.660;10.164;2022-12-16T05:33:36;23.67;;;9.27;;
73675;SDS011;61975;48.660;10.164;2022-12-16T05:36:20;22.17;;;8.77;;
73675;SDS011;61975;48.660;10.164;2022-12-16T05:39:04;27.02;;;10.15;;
73675;SDS011;61975;48.660;10.164;2022-12-16T05:41:48;25.40;;;9.40;;
73675;SDS011;61975;48.660;10.164;2022-12-16T05:44:32;26.27;;;9.80;;
73675;SDS011;61975;48.660;10.164;2022-12-16T05:47:16;26.30;;;10.25;;
73675;SDS011;61975;48.660;10.164;2022-12-16T05:50:00;27.48;;;10.30;;
73675;SDS011;61975;48.660;10.164;2022-12-16T05:52:48;25.48;;;9.57;;
73675;SDS011;61975;48.660;10.164;2022-12-16T05:55:33;27.43;;;10.47;;
73675;SDS011;61975;48.660;10.164;2022-12-16T05:58:17;23.85;;;9.50;;
73675;SDS011;61975;48.660;10.164;2022-12-16T06:01:01;27.70;;;10.68;;
73675;SDS011;61975;48.660;10.164;2022-12-16T06:03:45;30.48;;;10.70;;
73675;SDS011;61975;48.660;10.164;2022-12-16T06:06:29;23.25;;;9.00;;
73675;SDS011;61975;48.660;10.164;2022-12-16T06:09:13;27.23;;;9.83;;
73675;SDS011;61975;48.660;10.164;2022-12-16T06:11:57;26.08;;;9.52;;
73675;SDS011;61975;48.660;10.164;2022-12-16T06:14:40;26.02;;;11.30;;
73675;SDS011;61975;48.660;10.164;2022-12-16T06:17:25;27.70;;;10.27;;
73675;SDS011;61975;48.660;10.164;2022-12-16T06:20:09;21.73;;;9.32;;
73675;SDS011;61975;48.660;10.164;2022-12-16T06:22:53;29.17;;;10.13;;
73675;SDS011;61975;48.660;10.164;2022-12-16T06:25:38;26.58;;;10.07;;
73675;SDS011;61975;48.660;10.164;2022-12-16T06:28:22;20.90;;;8.63;;
73675;SDS011;61975;48.660;10.164;2022-12-16T06:31:06;23.20;;;8.73;;
73675;SDS011;61975;48.660;10.164;2022-12-16T06:33:50;25.25;;;9.38;;
73675;SDS011;61975;48.660;10.164;2022-12-16T06:36:34;23.07;;;9.47;;
73675;SDS011;61975;48.660;10.164;2022-12-16T06:39:18;25.70;;;9.68;;
73675;SDS011;61975;48.660;10.164;2022-12-16T06:42:02;26.88;;;10.30;;
73675;SDS011;61975;48.660;10.164;2022-12-16T06:44:46;28.20;;;10.63;;
73675;SDS011;61975;48.660;10.164;2022-12-16T06:47:30;22.63;;;9.35;;
73675;SDS011;61975;48.660;10.164;2022-12-16T06:50:14;24.33;;;9.70;;
73675;SDS011;61975;48.660;10.164;2022-12-16T06:52:58;24.13;;;9.97;;
73675;SDS011;61975;48.660;10.164;2022-12-16T06:55:42;22.52;;;9.88;;
73675;SDS011;61975;48.660;10.164;2022-12-16T06:58:26;24.42;;;9.70;;
73675;SDS011;61975;48.660;10.164;2022-12-16T07:01:10;27.27;;;9.75;;
73675;SDS011;61975;48.660;10.164;2022-12-16T07:03:54;23.23;;;9.48;;
73675;SDS011;61975;48.660;10.164;2022-12-16T07:06:38;23.37;;;9.57;;
73675;SDS011;61975;48.660;10.164;2022-12-16T07:09:22;26.05;;;10.23;;
73675;SDS011;61975;48.660;10.164;2022-12-16T07:12:06;22.67;;;9.07;;
73675;SDS011;61975;48.660;10.164;2022-12-16T07:14:51;21.80;;;9.02;;
73675;SDS011;61975;48.660;10.164;2022-12-16T07:17:35;23.42;;;9.50;;
73675;SDS011;61975;48.660;10.164;2022-12-16T07:20:22;26.97;;;9.17;;
73675;SDS011;61975;48.660;10.164;2022-12-16T07:23:06;24.63;;;9.35;;
73675;SDS011;61975;48.660;10.164;2022-12-16T07:25:50;23.77;;;9.35;;
73675;SDS011;61975;48.660;10.164;2022-12-16T07:28:34;22.55;;;9.45;;
73675;SDS011;61975;48.660;10.164;2022-12-16T07:31:18;24.50;;;10.20;;
73675;SDS011;61975;48.660;10.164;2022-12-16T07:34:02;22.87;;;9.53;;
73675;SDS011;61975;48.660;10.164;2022-12-16T07:36:46;30.15;;;11.13;;
73675;SDS011;61975;48.660;10.164;2022-12-16T07:39:30;28.20;;;10.38;;
73675;SDS011;61975;48.660;10.164;2022-12-16T07:42:27;22.65;;;9.95;;
73675;SDS011;61975;48.660;10.164;2022-12-16T07:45:11;26.45;;;11.23;;
73675;SDS011;61975;48.660;10.164;2022-12-16T07:47:55;25.80;;;10.63;;
73675;SDS011;61975;48.660;10.164;2022-12-16T07:50:39;28.35;;;10.20;;
73675;SDS011;61975;48.660;10.164;2022-12-16T07:53:23;25.38;;;10.43;;
73675;SDS011;61975;48.660;10.164;2022-12-16T07:56:08;25.10;;;9.88;;
73675;SDS011;61975;48.660;10.164;2022-12-16T07:58:52;24.80;;;9.98;;
73675;SDS011;61975;48.660;10.164;2022-12-16T08:01:36;23.70;;;9.90;;
73675;SDS011;61975;48.660;10.164;2022-12-16T08:04:20;23.40;;;9.82;;
73675;SDS011;61975;48.660;10.164;2022-12-16T08:07:04;26.50;;;9.45;;
73675;SDS011;61975;48.660;10.164;2022-12-16T08:09:48;25.85;;;9.50;;
73675;SDS011;61975;48.660;10.164;2022-12-16T08:12:32;28.45;;;10.65;;
73675;SDS011;61975;48.660;10.164;2022-12-16T08:15:16;29.00;;;11.37;;
73675;SDS011;61975;48.660;10.164;2022-12-16T08:18:00;26.02;;;10.02;;
73675;SDS011;61975;48.660;10.164;2022-12-16T08:20:43;27.20;;;9.13;;
73675;SDS011;61975;48.660;10.164;2022-12-16T08:23:28;25.70;;;9.63;;
73675;SDS011;61975;48.660;10.164;2022-12-16T08:26:11;25.38;;;8.63;;
73675;SDS011;61975;48.660;10.164;2022-12-16T08:28:55;21.20;;;8.57;;
73675;SDS011;61975;48.660;10.164;2022-12-16T08:31:39;22.55;;;8.45;;
73675;SDS011;61975;48.660;10.164;2022-12-16T08:34:23;23.23;;;9.30;;
73675;SDS011;61975;48.660;10.164;2022-12-16T08:37:07;21.17;;;8.68;;
73675;SDS011;61975;48.660;10.164;2022-12-16T08:39:52;16.67;;;6.07;;
73675;SDS011;61975;48.660;10.164;2022-12-16T08:42:36;18.00;;;6.40;;
73675;SDS011;61975;48.660;10.164;2022-12-16T08:45:21;24.40;;;9.75;;
73675;SDS011;61975;48.660;10.164;2022-12-16T08:48:05;26.40;;;10.15;;
73675;SDS011;61975;48.660;10.164;2022-12-16T08:50:49;24.48;;;9.15;;
73675;SDS011;61975;48.660;10.164;2022-12-16T08:53:33;22.17;;;8.25;;
73675;SDS011;61975;48.660;10.164;2022-12-16T08:56:17;19.23;;;8.30;;
73675;SDS011;61975;48.660;10.164;2022-12-16T08:59:00;23.30;;;9.43;;
73675;SDS011;61975;48.660;10.164;2022-12-16T09:01:44;24.70;;;9.10;;
73675;SDS011;61975;48.660;10.164;2022-12-16T09:04:28;23.13;;;8.93;;
73675;SDS011;61975;48.660;10.164;2022-12-16T09:07:12;22.75;;;8.70;;
73675;SDS011;61975;48.660;10.164;2022-12-16T09:09:56;20.93;;;8.40;;
73675;SDS011;61975;48.660;10.164;2022-12-16T09:12:40;22.00;;;8.23;;
73675;SDS011;61975;48.660;10.164;2022-12-16T09:15:24;24.90;;;8.68;;
73675;SDS011;61975;48.660;10.164;2022-12-16T09:18:08;20.95;;;8.35;;
73675;SDS011;61975;48.660;10.164;2022-12-16T09:20:52;19.92;;;8.18;;
73675;SDS011;61975;48.660;10.164;2022-12-16T09:23:36;19.63;;;8.47;;
73675;SDS011;61975;48.660;10.164;2022-12-16T09:26:19;20.70;;;8.07;;
73675;SDS011;61975;48.660;10.164;2022-12-16T09:29:03;19.83;;;8.70;;
73675;SDS011;61975;48.660;10.164;2022-12-16T09:31:47;20.67;;;8.25;;
73675;SDS011;61975;48.660;10.164;2022-12-16T09:34:31;19.90;;;8.50;;
73675;SDS011;61975;48.660;10.164;2022-12-16T09:37:15;19.93;;;8.33;;
73675;SDS011;61975;48.660;10.164;2022-12-16T09:39:59;22.00;;;9.07;;
73675;SDS011;61975;48.660;10.164;2022-12-16T09:42:47;18.35;;;7.80;;
73675;SDS011;61975;48.660;10.164;2022-12-16T09:46:03;22.85;;;8.48;;
73675;SDS011;61975;48.660;10.164;2022-12-16T09:48:57;20.25;;;8.18;;
73675;SDS011;61975;48.660;10.164;2022-12-16T09:51:44;17.40;;;7.70;;
73675;SDS011;61975;48.660;10.164;2022-12-16T09:54:30;17.45;;;7.15;;
73675;SDS011;61975;48.660;10.164;2022-12-16T09:57:18;16.70;;;7.25;;
73675;SDS011;61975;48.660;10.164;2022-12-16T10:00:04;18.15;;;8.15;;
73675;SDS011;61975;48.660;10.164;2022-12-16T10:03:07;14.80;;;7.35;;
73675;SDS011;61975;48.660;10.164;2022-12-16T10:06:19;18.43;;;7.03;;
73675;SDS011;61975;48.660;10.164;2022-12-16T10:16:28;15.30;;;6.80;;
73675;SDS011;61975;48.660;10.164;2022-12-16T10:22:31;18.17;;;6.77;;
73675;SDS011;61975;48.660;10.164;2022-12-16T10:25:43;15.77;;;6.47;;
73675;SDS011;61975;48.660;10.164;2022-12-16T10:28:49;13.48;;;6.38;;
73675;SDS011;61975;48.660;10.164;2022-12-16T10:31:38;18.45;;;7.00;;
73675;SDS011;61975;48.660;10.164;2022-12-16T10:34:27;18.55;;;8.23;;
73675;SDS011;61975;48.660;10.164;2022-12-16T10:37:19;16.90;;;7.43;;
73675;SDS011;61975;48.660;10.164;2022-12-16T10:40:14;20.50;;;9.13;;
73675;SDS011;61975;48.660;10.164;2022-12-16T10:43:29;19.02;;;7.30;;
73675;SDS011;61975;48.660;10.164;2022-12-16T10:46:19;17.65;;;7.18;;
73675;SDS011;61975;48.660;10.164;2022-12-16T10:49:11;17.75;;;7.18;;
73675;SDS011;61975;48.660;10.164;2022-12-16T10:51:57;14.53;;;6.37;;
73675;SDS011;61975;48.660;10.164;2022-12-16T10:54:45;15.30;;;6.68;;
73675;SDS011;61975;48.660;10.164;2022-12-16T10:57:42;16.40;;;6.95;;
73675;SDS011;61975;48.660;10.164;2022-12-16T11:00:40;15.25;;;6.35;;
73675;SDS011;61975;48.660;10.164;2022-12-16T11:03:33;15.32;;;6.72;;
73675;SDS011;61975;48.660;10.164;2022-12-16T11:06:35;19.03;;;6.20;;
73675;SDS011;61975;48.660;10.164;2022-12-16T11:09:32;15.98;;;6.28;;
73675;SDS011;61975;48.660;10.164;2022-12-16T11:12:20;15.88;;;6.68;;
73675;SDS011;61975;48.660;10.164;2022-12-16T11:15:21;17.08;;;6.82;;
73675;SDS011;61975;48.660;10.164;2022-12-16T11:18:12;17.25;;;7.25;;
73675;SDS011;61975;48.660;10.164;2022-12-16T11:21:05;19.67;;;6.80;;
73675;SDS011;61975;48.660;10.164;2022-12-16T11:24:06;18.42;;;7.45;;
73675;SDS011;61975;48.660;10.164;2022-12-16T11:27:00;21.90;;;8.38;;
73675;SDS011;61975;48.660;10.164;2022-12-16T11:29:56;17.20;;;6.78;;
73675;SDS011;61975;48.660;10.164;2022-12-16T11:32:44;20.05;;;7.32;;
73675;SDS011;61975;48.660;10.164;2022-12-16T11:35:33;17.67;;;7.50;;
73675;SDS011;61975;48.660;10.164;2022-12-16T11:41:10;15.50;;;7.00;;
73675;SDS011;61975;48.660;10.164;2022-12-16T11:44:04;16.90;;;6.68;;
73675;SDS011;61975;48.660;10.164;2022-12-16T11:46:52;16.92;;;6.60;;
73675;SDS011;61975;48.660;10.164;2022-12-16T11:49:36;15.87;;;6.23;;
73675;SDS011;61975;48.660;10.164;2022-12-16T11:52:20;21.40;;;7.40;;
73675;SDS011;61975;48.660;10.164;2022-12-16T12:00:57;19.17;;;7.32;;
73675;SDS011;61975;48.660;10.164;2022-12-16T12:03:47;21.30;;;7.40;;
73675;SDS011;61975;48.660;10.164;2022-12-16T12:10:11;16.00;;;6.85;;
73675;SDS011;61975;48.660;10.164;2022-12-16T12:19:51;16.73;;;7.10;;
73675;SDS011;61975;48.660;10.164;2022-12-16T12:22:39;15.88;;;6.10;;
73675;SDS011;61975;48.660;10.164;2022-12-16T12:37:25;15.77;;;6.00;;
73675;SDS011;61975;48.660;10.164;2022-12-16T12:47:14;16.05;;;6.43;;
73675;SDS011;61975;48.660;10.164;2022-12-16T12:59:19;19.13;;;7.00;;
73675;SDS011;61975;48.660;10.164;2022-12-16T13:02:11;15.27;;;6.20;;
73675;SDS011;61975;48.660;10.164;2022-12-16T13:05:10;17.57;;;6.60;;
73675;SDS011;61975;48.660;10.164;2022-12-16T13:08:29;18.95;;;6.60;;
73675;SDS011;61975;48.660;10.164;2022-12-16T13:11:28;17.88;;;7.00;;
73675;SDS011;61975;48.660;10.164;2022-12-16T13:17:15;15.70;;;6.65;;
73675;SDS011;61975;48.660;10.164;2022-12-16T13:20:00;17.40;;;6.30;;
73675;SDS011;61975;48.660;10.164;2022-12-16T13:22:45;17.20;;;6.70;;
73675;SDS011;61975;48.660;10.164;2022-12-16T13:28:26;17.45;;;6.45;;
73675;SDS011;61975;48.660;10.164;2022-12-16T13:31:11;16.90;;;7.22;;
73675;SDS011;61975;48.660;10.164;2022-12-16T13:33:56;15.20;;;6.53;;
73675;SDS011;61975;48.660;10.164;2022-12-16T13:36:51;15.70;;;6.20;;
73675;SDS011;61975;48.660;10.164;2022-12-16T13:39:37;17.58;;;6.45;;
73675;SDS011;61975;48.660;10.164;2022-12-16T13:42:34;16.15;;;6.93;;
73675;SDS011;61975;48.660;10.164;2022-12-16T13:48:26;16.90;;;6.67;;
73675;SDS011;61975;48.660;10.164;2022-12-16T13:54:28;14.80;;;6.53;;
73675;SDS011;61975;48.660;10.164;2022-12-16T13:57:27;16.42;;;6.50;;
73675;SDS011;61975;48.660;10.164;2022-12-16T14:00:18;14.43;;;5.97;;
73675;SDS011;61975;48.660;10.164;2022-12-16T14:03:13;14.27;;;6.17;;
73675;SDS011;61975;48.660;10.164;2022-12-16T14:06:18;13.98;;;5.95;;
73675;SDS011;61975;48.660;10.164;2022-12-16T14:09:11;15.60;;;6.35;;
73675;SDS011;61975;48.660;10.164;2022-12-16T14:15:31;14.48;;;5.90;;
73675;SDS011;61975;48.660;10.164;2022-12-16T14:18:27;15.20;;;5.40;;
73675;SDS011;61975;48.660;10.164;2022-12-16T14:21:34;10.07;;;4.63;;
73675;SDS011;61975;48.660;10.164;2022-12-16T14:24:25;13.55;;;5.25;;
73675;SDS011;61975;48.660;10.164;2022-12-16T14:27:17;12.88;;;5.05;;
73675;SDS011;61975;48.660;10.164;2022-12-16T14:30:13;11.57;;;5.07;;
73675;SDS011;61975;48.660;10.164;2022-12-16T14:36:18;11.68;;;5.15;;
73675;SDS011;61975;48.660;10.164;2022-12-16T14:39:08;12.05;;;5.07;;
73675;SDS011;61975;48.660;10.164;2022-12-16T14:41:56;12.23;;;5.22;;
73675;SDS011;61975;48.660;10.164;2022-12-16T14:44:57;11.43;;;4.82;;
73675;SDS011;61975;48.660;10.164;2022-12-16T14:47:41;13.03;;;5.60;;
73675;SDS011;61975;48.660;10.164;2022-12-16T14:50:27;12.43;;;5.00;;
73675;SDS011;61975;48.660;10.164;2022-12-16T14:53:16;12.82;;;5.10;;
73675;SDS011;61975;48.660;10.164;2022-12-16T14:56:08;12.55;;;5.18;;
73675;SDS011;61975;48.660;10.164;2022-12-16T14:59:33;11.77;;;5.32;;
73675;SDS011;61975;48.660;10.164;2022-12-16T15:05:00;11.20;;;5.25;;
73675;SDS011;61975;48.660;10.164;2022-12-16T15:07:44;10.60;;;4.85;;
73675;SDS011;61975;48.660;10.164;2022-12-16T15:10:28;10.15;;;4.32;;
73675;SDS011;61975;48.660;10.164;2022-12-16T15:13:13;10.88;;;4.70;;
73675;SDS011;61975;48.660;10.164;2022-12-16T15:15:59;11.30;;;4.80;;
73675;SDS011;61975;48.660;10.164;2022-12-16T15:18:45;11.60;;;4.97;;
73675;SDS011;61975;48.660;10.164;2022-12-16T15:21:32;11.77;;;5.43;;
73675;SDS011;61975;48.660;10.164;2022-12-16T15:24:18;10.98;;;4.78;;
73675;SDS011;61975;48.660;10.164;2022-12-16T15:27:23;13.93;;;5.28;;
73675;SDS011;61975;48.660;10.164;2022-12-16T15:33:16;10.57;;;5.10;;
73675;SDS011;61975;48.660;10.164;2022-12-16T15:36:01;13.18;;;5.70;;
73675;SDS011;61975;48.660;10.164;2022-12-16T15:38:46;13.75;;;6.13;;
73675;SDS011;61975;48.660;10.164;2022-12-16T15:41:31;11.88;;;4.75;;
73675;SDS011;61975;48.660;10.164;2022-12-16T15:44:24;11.20;;;4.70;;
73675;SDS011;61975;48.660;10.164;2022-12-16T15:47:25;13.50;;;5.70;;
73675;SDS011;61975;48.660;10.164;2022-12-16T15:50:13;11.50;;;4.80;;
73675;SDS011;61975;48.660;10.164;2022-12-16T15:56:20;12.13;;;5.03;;
73675;SDS011;61975;48.660;10.164;2022-12-16T15:59:50;15.30;;;5.30;;
73675;SDS011;61975;48.660;10.164;2022-12-16T16:02:27;12.70;;;4.68;;
73675;SDS011;61975;48.660;10.164;2022-12-16T16:05:16;13.57;;;5.82;;
73675;SDS011;61975;48.660;10.164;2022-12-16T16:08:02;23.95;;;7.80;;
73675;SDS011;61975;48.660;10.164;2022-12-16T16:10:47;15.35;;;5.63;;
73675;SDS011;61975;48.660;10.164;2022-12-16T16:13:31;22.50;;;7.77;;
73675;SDS011;61975;48.660;10.164;2022-12-16T16:16:15;20.58;;;8.15;;
73675;SDS011;61975;48.660;10.164;2022-12-16T16:19:00;16.65;;;6.97;;
73675;SDS011;61975;48.660;10.164;2022-12-16T16:21:43;12.65;;;5.68;;
73675;SDS011;61975;48.660;10.164;2022-12-16T16:24:27;12.63;;;5.43;;
73675;SDS011;61975;48.660;10.164;2022-12-16T16:27:12;13.13;;;4.83;;
73675;SDS011;61975;48.660;10.164;2022-12-16T16:29:57;12.13;;;4.75;;
73675;SDS011;61975;48.660;10.164;2022-12-16T16:32:42;12.80;;;5.55;;
73675;SDS011;61975;48.660;10.164;2022-12-16T16:35:26;14.57;;;5.88;;
73675;SDS011;61975;48.660;10.164;2022-12-16T16:38:10;14.32;;;5.32;;
73675;SDS011;61975;48.660;10.164;2022-12-16T16:41:00;11.90;;;5.10;;
73675;SDS011;61975;48.660;10.164;2022-12-16T16:43:56;13.48;;;5.45;;
73675;SDS011;61975;48.660;10.164;2022-12-16T16:46:40;14.38;;;5.43;;
73675;SDS011;61975;48.660;10.164;2022-12-16T16:49:27;13.63;;;5.20;;
73675;SDS011;61975;48.660;10.164;2022-12-16T16:52:14;17.52;;;6.10;;
73675;SDS011;61975;48.660;10.164;2022-12-16T16:55:00;14.03;;;5.33;;
73675;SDS011;61975;48.660;10.164;2022-12-16T16:57:45;12.02;;;5.13;;
73675;SDS011;61975;48.660;10.164;2022-12-16T17:00:29;13.32;;;5.60;;
73675;SDS011;61975;48.660;10.164;2022-12-16T17:03:13;13.73;;;5.10;;
73675;SDS011;61975;48.660;10.164;2022-12-16T17:05:58;12.27;;;5.50;;
73675;SDS011;61975;48.660;10.164;2022-12-16T17:08:52;12.87;;;5.93;;
73675;SDS011;61975;48.660;10.164;2022-12-16T17:11:36;14.38;;;5.95;;
73675;SDS011;61975;48.660;10.164;2022-12-16T17:14:21;13.13;;;5.47;;
73675;SDS011;61975;48.660;10.164;2022-12-16T17:17:05;14.43;;;5.55;;
73675;SDS011;61975;48.660;10.164;2022-12-16T17:19:49;11.35;;;5.03;;
73675;SDS011;61975;48.660;10.164;2022-12-16T17:22:33;13.80;;;6.33;;
73675;SDS011;61975;48.660;10.164;2022-12-16T17:25:17;14.68;;;5.25;;
73675;SDS011;61975;48.660;10.164;2022-12-16T17:28:02;12.80;;;5.50;;
73675;SDS011;61975;48.660;10.164;2022-12-16T17:30:46;12.38;;;5.32;;
73675;SDS011;61975;48.660;10.164;2022-12-16T17:33:30;13.93;;;5.85;;
73675;SDS011;61975;48.660;10.164;2022-12-16T17:36:14;11.77;;;5.33;;
73675;SDS011;61975;48.660;10.164;2022-12-16T17:38:59;14.27;;;5.68;;
73675;SDS011;61975;48.660;10.164;2022-12-16T17:41:44;12.45;;;5.45;;
73675;SDS011;61975;48.660;10.164;2022-12-16T17:44:28;14.02;;;5.63;;
73675;SDS011;61975;48.660;10.164;2022-12-16T17:47:13;12.45;;;6.10;;
73675;SDS011;61975;48.660;10.164;2022-12-16T17:49:58;12.53;;;5.43;;
73675;SDS011;61975;48.660;10.164;2022-12-16T17:52:42;13.50;;;6.30;;
73675;SDS011;61975;48.660;10.164;2022-12-16T17:55:26;12.52;;;5.90;;
73675;SDS011;61975;48.660;10.164;2022-12-16T17:58:10;12.10;;;5.90;;
73675;SDS011;61975;48.660;10.164;2022-12-16T18:00:59;14.45;;;6.13;;
73675;SDS011;61975;48.660;10.164;2022-12-16T18:03:44;14.27;;;6.20;;
73675;SDS011;61975;48.660;10.164;2022-12-16T18:06:27;13.77;;;6.68;;
73675;SDS011;61975;48.660;10.164;2022-12-16T18:09:11;16.45;;;6.03;;